Highland, Nebraska
Current Conditions -  °F | °C
As of 9:55 PM on Wednesday 22 Oct 2014 (Local Time) from KBIE Reporting Station
Moderate Rain Moderate Rain  
Wind Chill: 61°   Ceiling: 6500
Heat Index: 61°   Visibility: 5mi
Dew Point: 59°   Wind: 5mph
Humidity: 93%   Direction: 280°W
Pressure: 30.07"   Gusts: NA
Location:  40.4797°N, 96.7417°W
Report Text: KBIE 230255Z AUTO 28004KT 5SM RA SCT033 BKN065 OVC090 16/15 A3007 RMK AO2 P0013 60036 T01610150
Loading
Personal Weather Stations






























Interactive Weather Map
Tropical Storm Tracking
New forecast layout! Learn more

10-Day Weather Forecast

Advertisements
Track Severe Weather on mobile